Pagrindinis puslapis
METAR-TAF:

METAR-TAF

Oro uostai :

Ponta Delgada, Azorai, Portugalija

platuma: 37-44N, ilguma: 025-42W, Aukštis: 71 m

Dabartinis oras

Ataskaita buvo paskelbta 31 minutes, ne 02:00 UTC
Vėjas 10 kt iš Vakarų/Pietvakarių
Temperatūra 16°C
Drėgmė 94%
Slėgis 1014 hPa
Matomumas 10 km arba daugiau
Išsisklaidę debesys ne aukštis 1100 ft

METAR: LPPD 190200Z 25010KT 9999 SCT011 16/15 Q1014

Laikas: 02:31 (02:31 UTC)

Prognozė

Ataskaita buvo paskelbta 3 valandos ir 31 minutes, ne 23:00 UTC
Prognozė galioja nuo 19 metu 00 UTC su 19 metu 24 UTC
Vėjas 8 kt iš Vakarų/Pietvakarių
Matomumas 10 km arba daugiau
Išsisklaidę debesys ne aukštis 1500 ft
Tikimybė 30% :
Laikinai
nuo 19 metu 00 UTC su 19 metu 08 UTC
Su prošvaistėmis ne aukštis 800 ft
Tapsmas
nuo 19 metu 06 UTC su 19 metu 08 UTC
Vėjas 12 kt iš Vakarų
Laikinai
nuo 19 metu 08 UTC su 19 metu 24 UTC
Išsisklaidę debesys ne aukštis 800 ft
Su prošvaistėmis ne aukštis 2000 ft

TAF: LPPD 182300Z 1900/1924 25008KT 9999 SCT015 PROB30 TEMPO 1900/1908 BKN008 BECMG 1906/1908 28012KT TEMPO 1908/1924 SCT008 BKN020

Orai ataskaitas ir orų prognozės (METAR, TAF).

turimą stotys yra geltonos ir raudonos taškus žemėlapyje.

Perkelti pele per norėdami pamatyti stoties vardą.

Tada spustelėkite, norėdami matyti oro stebėjimo ir prognozės.

Norėdami pakeisti žemėlapį: spustelėkite ant žalios mygtukų su juodo kryžiaus žemyn,; žalią mygtuką su brūkšneliu, jei norite nutolinti; arba žalių rodyklių gretimoms žemėlapius.


METAR-TAF: